sensor_id;sensor_type;location;lat;lon;timestamp;P1;durP1;ratioP1;P2;durP2;ratioP2
50337;SDS011;46221;51.178;5.900;2023-02-04T00:01:56;5.57;;;1.75;;
50337;SDS011;46221;51.178;5.900;2023-02-04T00:04:23;4.93;;;1.83;;
50337;SDS011;46221;51.178;5.900;2023-02-04T00:06:49;5.32;;;1.65;;
50337;SDS011;46221;51.178;5.900;2023-02-04T00:09:16;5.00;;;1.63;;
50337;SDS011;46221;51.178;5.900;2023-02-04T00:11:42;5.63;;;1.60;;
50337;SDS011;46221;51.178;5.900;2023-02-04T00:14:09;4.22;;;1.50;;
50337;SDS011;46221;51.178;5.900;2023-02-04T00:16:36;4.88;;;1.95;;
50337;SDS011;46221;51.178;5.900;2023-02-04T00:19:03;5.75;;;1.92;;
50337;SDS011;46221;51.178;5.900;2023-02-04T00:21:29;4.18;;;1.50;;
50337;SDS011;46221;51.178;5.900;2023-02-04T00:23:56;5.25;;;1.70;;
50337;SDS011;46221;51.178;5.900;2023-02-04T00:26:22;4.65;;;1.38;;
50337;SDS011;46221;51.178;5.900;2023-02-04T00:28:49;4.70;;;1.77;;
50337;SDS011;46221;51.178;5.900;2023-02-04T00:31:15;7.65;;;1.63;;
50337;SDS011;46221;51.178;5.900;2023-02-04T00:33:42;4.95;;;1.67;;
50337;SDS011;46221;51.178;5.900;2023-02-04T00:36:08;4.63;;;1.35;;
50337;SDS011;46221;51.178;5.900;2023-02-04T00:38:35;6.85;;;1.50;;
50337;SDS011;46221;51.178;5.900;2023-02-04T00:41:02;6.78;;;1.60;;
50337;SDS011;46221;51.178;5.900;2023-02-04T00:43:28;3.55;;;1.30;;
50337;SDS011;46221;51.178;5.900;2023-02-04T00:45:55;4.43;;;1.45;;
50337;SDS011;46221;51.178;5.900;2023-02-04T00:48:21;5.07;;;1.48;;
50337;SDS011;46221;51.178;5.900;2023-02-04T00:50:48;3.60;;;1.10;;
50337;SDS011;46221;51.178;5.900;2023-02-04T00:53:14;5.25;;;1.63;;
50337;SDS011;46221;51.178;5.900;2023-02-04T00:55:41;5.50;;;1.58;;
50337;SDS011;46221;51.178;5.900;2023-02-04T00:58:07;5.45;;;1.63;;
50337;SDS011;46221;51.178;5.900;2023-02-04T01:00:33;3.50;;;1.45;;
50337;SDS011;46221;51.178;5.900;2023-02-04T01:03:00;4.50;;;1.75;;
50337;SDS011;46221;51.178;5.900;2023-02-04T01:05:26;6.38;;;1.70;;
50337;SDS011;46221;51.178;5.900;2023-02-04T01:07:53;4.60;;;2.03;;
50337;SDS011;46221;51.178;5.900;2023-02-04T01:10:20;5.18;;;1.75;;
50337;SDS011;46221;51.178;5.900;2023-02-04T01:12:46;4.70;;;1.45;;
50337;SDS011;46221;51.178;5.900;2023-02-04T01:15:13;4.82;;;1.50;;
50337;SDS011;46221;51.178;5.900;2023-02-04T01:17:39;5.18;;;1.73;;
50337;SDS011;46221;51.178;5.900;2023-02-04T01:20:07;6.25;;;1.60;;
50337;SDS011;46221;51.178;5.900;2023-02-04T01:22:35;5.28;;;1.40;;
50337;SDS011;46221;51.178;5.900;2023-02-04T01:25:01;6.38;;;1.35;;
50337;SDS011;46221;51.178;5.900;2023-02-04T01:27:27;5.80;;;1.50;;
50337;SDS011;46221;51.178;5.900;2023-02-04T01:29:54;5.60;;;1.60;;
50337;SDS011;46221;51.178;5.900;2023-02-04T01:32:20;5.47;;;1.52;;
50337;SDS011;46221;51.178;5.900;2023-02-04T01:34:47;3.45;;;1.20;;
50337;SDS011;46221;51.178;5.900;2023-02-04T01:37:13;6.82;;;1.50;;
50337;SDS011;46221;51.178;5.900;2023-02-04T01:39:39;4.70;;;1.83;;
50337;SDS011;46221;51.178;5.900;2023-02-04T01:42:06;4.72;;;1.48;;
50337;SDS011;46221;51.178;5.900;2023-02-04T01:44:32;5.20;;;1.60;;
50337;SDS011;46221;51.178;5.900;2023-02-04T01:46:59;6.40;;;1.50;;
50337;SDS011;46221;51.178;5.900;2023-02-04T01:49:26;3.40;;;1.27;;
50337;SDS011;46221;51.178;5.900;2023-02-04T01:51:52;7.03;;;1.88;;
50337;SDS011;46221;51.178;5.900;2023-02-04T01:54:19;4.18;;;1.27;;
50337;SDS011;46221;51.178;5.900;2023-02-04T01:56:47;5.05;;;1.45;;
50337;SDS011;46221;51.178;5.900;2023-02-04T01:59:16;5.40;;;1.95;;
50337;SDS011;46221;51.178;5.900;2023-02-04T02:01:45;6.80;;;1.63;;
50337;SDS011;46221;51.178;5.900;2023-02-04T02:04:15;3.67;;;1.33;;
50337;SDS011;46221;51.178;5.900;2023-02-04T02:06:47;4.75;;;1.40;;
50337;SDS011;46221;51.178;5.900;2023-02-04T02:09:17;9.43;;;1.80;;
50337;SDS011;46221;51.178;5.900;2023-02-04T02:11:44;6.68;;;1.77;;
50337;SDS011;46221;51.178;5.900;2023-02-04T02:14:10;4.82;;;1.70;;
50337;SDS011;46221;51.178;5.900;2023-02-04T02:16:37;4.60;;;1.45;;
50337;SDS011;46221;51.178;5.900;2023-02-04T02:19:04;9.68;;;1.83;;
50337;SDS011;46221;51.178;5.900;2023-02-04T02:21:39;4.13;;;1.30;;
50337;SDS011;46221;51.178;5.900;2023-02-04T02:24:23;3.50;;;1.25;;
50337;SDS011;46221;51.178;5.900;2023-02-04T02:26:54;4.13;;;1.42;;
50337;SDS011;46221;51.178;5.900;2023-02-04T02:29:22;4.68;;;1.60;;
50337;SDS011;46221;51.178;5.900;2023-02-04T02:31:49;4.38;;;1.25;;
50337;SDS011;46221;51.178;5.900;2023-02-04T02:34:16;7.38;;;1.63;;
50337;SDS011;46221;51.178;5.900;2023-02-04T02:36:43;4.75;;;1.50;;
50337;SDS011;46221;51.178;5.900;2023-02-04T02:39:10;3.13;;;1.30;;
50337;SDS011;46221;51.178;5.900;2023-02-04T02:41:37;3.95;;;1.25;;
50337;SDS011;46221;51.178;5.900;2023-02-04T02:44:03;5.90;;;1.27;;
50337;SDS011;46221;51.178;5.900;2023-02-04T02:46:30;3.85;;;1.30;;
50337;SDS011;46221;51.178;5.900;2023-02-04T02:48:56;4.00;;;1.38;;
50337;SDS011;46221;51.178;5.900;2023-02-04T02:51:23;4.53;;;0.98;;
50337;SDS011;46221;51.178;5.900;2023-02-04T02:53:49;3.58;;;1.20;;
50337;SDS011;46221;51.178;5.900;2023-02-04T02:56:16;4.05;;;1.30;;
50337;SDS011;46221;51.178;5.900;2023-02-04T02:58:44;4.00;;;1.40;;
50337;SDS011;46221;51.178;5.900;2023-02-04T03:01:11;4.28;;;1.42;;
50337;SDS011;46221;51.178;5.900;2023-02-04T03:03:42;4.82;;;1.30;;
50337;SDS011;46221;51.178;5.900;2023-02-04T03:06:15;3.75;;;1.10;;
50337;SDS011;46221;51.178;5.900;2023-02-04T03:08:45;5.30;;;1.90;;
50337;SDS011;46221;51.178;5.900;2023-02-04T03:11:16;4.00;;;1.20;;
50337;SDS011;46221;51.178;5.900;2023-02-04T03:13:42;5.38;;;1.67;;
50337;SDS011;46221;51.178;5.900;2023-02-04T03:16:09;5.20;;;1.50;;
50337;SDS011;46221;51.178;5.900;2023-02-04T03:18:36;3.83;;;1.50;;
50337;SDS011;46221;51.178;5.900;2023-02-04T03:21:04;5.22;;;1.35;;
50337;SDS011;46221;51.178;5.900;2023-02-04T03:23:32;3.95;;;1.27;;
50337;SDS011;46221;51.178;5.900;2023-02-04T03:26:00;4.22;;;1.35;;
50337;SDS011;46221;51.178;5.900;2023-02-04T03:28:27;3.35;;;1.20;;
50337;SDS011;46221;51.178;5.900;2023-02-04T03:30:55;3.90;;;1.58;;
50337;SDS011;46221;51.178;5.900;2023-02-04T03:33:22;3.30;;;1.10;;
50337;SDS011;46221;51.178;5.900;2023-02-04T03:35:49;3.10;;;1.40;;
50337;SDS011;46221;51.178;5.900;2023-02-04T03:38:16;5.07;;;1.35;;
50337;SDS011;46221;51.178;5.900;2023-02-04T03:40:45;4.63;;;0.98;;
50337;SDS011;46221;51.178;5.900;2023-02-04T03:43:11;5.38;;;1.60;;
50337;SDS011;46221;51.178;5.900;2023-02-04T03:45:38;4.07;;;1.63;;
50337;SDS011;46221;51.178;5.900;2023-02-04T03:48:10;4.68;;;1.67;;
50337;SDS011;46221;51.178;5.900;2023-02-04T03:50:36;5.68;;;1.40;;
50337;SDS011;46221;51.178;5.900;2023-02-04T03:53:03;2.85;;;0.95;;
50337;SDS011;46221;51.178;5.900;2023-02-04T03:55:29;4.55;;;1.42;;
50337;SDS011;46221;51.178;5.900;2023-02-04T03:57:57;3.08;;;1.20;;
50337;SDS011;46221;51.178;5.900;2023-02-04T04:00:24;3.63;;;1.10;;
50337;SDS011;46221;51.178;5.900;2023-02-04T04:02:51;2.95;;;0.98;;
50337;SDS011;46221;51.178;5.900;2023-02-04T04:05:17;3.70;;;1.20;;
50337;SDS011;46221;51.178;5.900;2023-02-04T04:07:44;4.03;;;1.35;;
50337;SDS011;46221;51.178;5.900;2023-02-04T04:10:10;3.83;;;1.00;;
50337;SDS011;46221;51.178;5.900;2023-02-04T04:12:37;4.03;;;1.30;;
50337;SDS011;46221;51.178;5.900;2023-02-04T04:15:03;3.42;;;1.20;;
50337;SDS011;46221;51.178;5.900;2023-02-04T04:17:31;4.80;;;1.00;;
50337;SDS011;46221;51.178;5.900;2023-02-04T04:19:57;3.30;;;1.05;;
50337;SDS011;46221;51.178;5.900;2023-02-04T04:22:23;2.38;;;1.10;;
50337;SDS011;46221;51.178;5.900;2023-02-04T04:24:50;3.88;;;1.23;;
50337;SDS011;46221;51.178;5.900;2023-02-04T04:27:17;3.53;;;1.00;;
50337;SDS011;46221;51.178;5.900;2023-02-04T04:29:43;2.33;;;1.02;;
50337;SDS011;46221;51.178;5.900;2023-02-04T04:32:09;4.38;;;1.38;;
50337;SDS011;46221;51.178;5.900;2023-02-04T04:34:36;2.78;;;1.17;;
50337;SDS011;46221;51.178;5.900;2023-02-04T04:37:02;2.85;;;1.00;;
50337;SDS011;46221;51.178;5.900;2023-02-04T04:39:29;3.35;;;1.05;;
50337;SDS011;46221;51.178;5.900;2023-02-04T04:41:55;3.22;;;1.20;;
50337;SDS011;46221;51.178;5.900;2023-02-04T04:44:22;2.65;;;1.10;;
50337;SDS011;46221;51.178;5.900;2023-02-04T04:46:48;4.30;;;1.83;;
50337;SDS011;46221;51.178;5.900;2023-02-04T04:49:14;5.22;;;1.27;;
50337;SDS011;46221;51.178;5.900;2023-02-04T04:51:41;3.53;;;1.48;;
50337;SDS011;46221;51.178;5.900;2023-02-04T04:54:08;5.53;;;1.40;;
50337;SDS011;46221;51.178;5.900;2023-02-04T04:56:34;3.92;;;1.40;;
50337;SDS011;46221;51.178;5.900;2023-02-04T04:59:00;2.65;;;1.02;;
50337;SDS011;46221;51.178;5.900;2023-02-04T05:01:28;2.42;;;0.98;;
50337;SDS011;46221;51.178;5.900;2023-02-04T05:03:57;4.60;;;1.20;;
50337;SDS011;46221;51.178;5.900;2023-02-04T05:06:24;3.38;;;1.15;;
50337;SDS011;46221;51.178;5.900;2023-02-04T05:08:51;2.22;;;1.00;;
50337;SDS011;46221;51.178;5.900;2023-02-04T05:11:17;3.50;;;1.20;;
50337;SDS011;46221;51.178;5.900;2023-02-04T05:13:44;3.05;;;1.25;;
50337;SDS011;46221;51.178;5.900;2023-02-04T05:16:11;4.97;;;1.80;;
50337;SDS011;46221;51.178;5.900;2023-02-04T05:18:38;3.00;;;1.20;;
50337;SDS011;46221;51.178;5.900;2023-02-04T05:21:04;3.28;;;1.20;;
50337;SDS011;46221;51.178;5.900;2023-02-04T05:23:32;3.80;;;1.80;;
50337;SDS011;46221;51.178;5.900;2023-02-04T05:25:59;3.13;;;1.20;;
50337;SDS011;46221;51.178;5.900;2023-02-04T05:28:25;4.03;;;1.45;;
50337;SDS011;46221;51.178;5.900;2023-02-04T05:30:52;3.50;;;1.25;;
50337;SDS011;46221;51.178;5.900;2023-02-04T05:33:18;3.58;;;1.30;;
50337;SDS011;46221;51.178;5.900;2023-02-04T05:35:45;2.75;;;1.20;;
50337;SDS011;46221;51.178;5.900;2023-02-04T05:38:14;4.05;;;1.48;;
50337;SDS011;46221;51.178;5.900;2023-02-04T05:40:41;3.38;;;1.17;;
50337;SDS011;46221;51.178;5.900;2023-02-04T05:43:07;3.50;;;1.15;;
50337;SDS011;46221;51.178;5.900;2023-02-04T05:45:34;3.15;;;1.10;;
50337;SDS011;46221;51.178;5.900;2023-02-04T05:48:00;4.10;;;1.50;;
50337;SDS011;46221;51.178;5.900;2023-02-04T05:50:27;3.50;;;1.38;;
50337;SDS011;46221;51.178;5.900;2023-02-04T05:52:53;5.40;;;1.67;;
50337;SDS011;46221;51.178;5.900;2023-02-04T05:55:21;3.40;;;1.10;;
50337;SDS011;46221;51.178;5.900;2023-02-04T05:57:47;3.45;;;1.55;;
50337;SDS011;46221;51.178;5.900;2023-02-04T06:00:14;3.35;;;1.58;;
50337;SDS011;46221;51.178;5.900;2023-02-04T06:02:40;4.13;;;1.35;;
50337;SDS011;46221;51.178;5.900;2023-02-04T06:05:07;5.10;;;1.50;;
50337;SDS011;46221;51.178;5.900;2023-02-04T06:07:34;5.80;;;1.80;;
50337;SDS011;46221;51.178;5.900;2023-02-04T06:10:00;2.55;;;1.55;;
50337;SDS011;46221;51.178;5.900;2023-02-04T06:12:27;6.10;;;2.03;;
50337;SDS011;46221;51.178;5.900;2023-02-04T06:14:53;5.15;;;1.50;;
50337;SDS011;46221;51.178;5.900;2023-02-04T06:17:21;3.45;;;1.45;;
50337;SDS011;46221;51.178;5.900;2023-02-04T06:19:47;3.58;;;1.30;;
50337;SDS011;46221;51.178;5.900;2023-02-04T06:22:13;3.53;;;1.63;;
50337;SDS011;46221;51.178;5.900;2023-02-04T06:24:40;3.28;;;1.35;;
50337;SDS011;46221;51.178;5.900;2023-02-04T06:27:06;3.40;;;1.48;;
50337;SDS011;46221;51.178;5.900;2023-02-04T06:29:33;4.55;;;2.13;;
50337;SDS011;46221;51.178;5.900;2023-02-04T06:31:59;4.18;;;1.63;;
50337;SDS011;46221;51.178;5.900;2023-02-04T06:34:26;5.32;;;1.98;;
50337;SDS011;46221;51.178;5.900;2023-02-04T06:36:52;5.63;;;1.90;;
50337;SDS011;46221;51.178;5.900;2023-02-04T06:39:21;5.22;;;1.60;;
50337;SDS011;46221;51.178;5.900;2023-02-04T06:41:48;4.72;;;1.80;;
50337;SDS011;46221;51.178;5.900;2023-02-04T06:44:14;5.53;;;1.80;;
50337;SDS011;46221;51.178;5.900;2023-02-04T06:46:41;4.70;;;2.15;;
50337;SDS011;46221;51.178;5.900;2023-02-04T06:49:07;5.85;;;2.15;;
50337;SDS011;46221;51.178;5.900;2023-02-04T06:51:34;4.65;;;2.00;;
50337;SDS011;46221;51.178;5.900;2023-02-04T06:54:00;4.95;;;2.13;;
50337;SDS011;46221;51.178;5.900;2023-02-04T06:56:27;4.05;;;1.83;;
50337;SDS011;46221;51.178;5.900;2023-02-04T06:58:55;4.38;;;2.15;;
50337;SDS011;46221;51.178;5.900;2023-02-04T07:01:22;5.65;;;2.42;;
50337;SDS011;46221;51.178;5.900;2023-02-04T07:03:49;4.78;;;2.28;;
50337;SDS011;46221;51.178;5.900;2023-02-04T07:06:16;3.75;;;1.77;;
50337;SDS011;46221;51.178;5.900;2023-02-04T07:08:45;6.00;;;2.40;;
50337;SDS011;46221;51.178;5.900;2023-02-04T07:11:12;8.05;;;2.03;;
50337;SDS011;46221;51.178;5.900;2023-02-04T07:13:39;4.95;;;2.50;;
50337;SDS011;46221;51.178;5.900;2023-02-04T07:16:05;4.72;;;2.20;;
50337;SDS011;46221;51.178;5.900;2023-02-04T07:18:32;4.43;;;2.17;;
50337;SDS011;46221;51.178;5.900;2023-02-04T07:20:59;6.38;;;2.30;;
50337;SDS011;46221;51.178;5.900;2023-02-04T07:23:26;5.28;;;2.40;;
50337;SDS011;46221;51.178;5.900;2023-02-04T07:25:53;4.05;;;1.77;;
50337;SDS011;46221;51.178;5.900;2023-02-04T07:28:25;5.15;;;2.10;;
50337;SDS011;46221;51.178;5.900;2023-02-04T07:30:51;5.30;;;1.90;;
50337;SDS011;46221;51.178;5.900;2023-02-04T07:33:18;6.10;;;2.20;;
50337;SDS011;46221;51.178;5.900;2023-02-04T07:35:45;9.57;;;2.10;;
50337;SDS011;46221;51.178;5.900;2023-02-04T07:38:11;4.45;;;2.05;;
50337;SDS011;46221;51.178;5.900;2023-02-04T07:40:37;4.63;;;2.00;;
50337;SDS011;46221;51.178;5.900;2023-02-04T07:43:04;4.80;;;2.17;;
50337;SDS011;46221;51.178;5.900;2023-02-04T07:45:31;5.28;;;1.90;;
50337;SDS011;46221;51.178;5.900;2023-02-04T07:47:57;9.60;;;2.50;;
50337;SDS011;46221;51.178;5.900;2023-02-04T07:50:23;6.95;;;2.30;;
50337;SDS011;46221;51.178;5.900;2023-02-04T07:52:50;4.97;;;2.03;;
50337;SDS011;46221;51.178;5.900;2023-02-04T07:55:17;6.63;;;2.60;;
50337;SDS011;46221;51.178;5.900;2023-02-04T07:57:43;6.03;;;2.25;;
50337;SDS011;46221;51.178;5.900;2023-02-04T08:00:10;6.78;;;2.25;;
50337;SDS011;46221;51.178;5.900;2023-02-04T08:02:39;6.65;;;2.47;;
50337;SDS011;46221;51.178;5.900;2023-02-04T08:05:07;5.43;;;2.40;;
50337;SDS011;46221;51.178;5.900;2023-02-04T08:07:34;5.97;;;2.53;;
50337;SDS011;46221;51.178;5.900;2023-02-04T08:10:01;6.68;;;2.45;;
50337;SDS011;46221;51.178;5.900;2023-02-04T08:12:29;4.65;;;2.20;;
50337;SDS011;46221;51.178;5.900;2023-02-04T08:14:55;6.95;;;2.42;;
50337;SDS011;46221;51.178;5.900;2023-02-04T08:17:21;6.47;;;2.33;;
50337;SDS011;46221;51.178;5.900;2023-02-04T08:19:48;5.80;;;2.75;;
50337;SDS011;46221;51.178;5.900;2023-02-04T08:22:15;6.25;;;2.38;;
50337;SDS011;46221;51.178;5.900;2023-02-04T08:24:41;5.88;;;2.50;;
50337;SDS011;46221;51.178;5.900;2023-02-04T08:27:08;6.22;;;2.75;;
50337;SDS011;46221;51.178;5.900;2023-02-04T08:29:34;8.05;;;3.72;;
50337;SDS011;46221;51.178;5.900;2023-02-04T08:32:01;6.78;;;2.50;;
50337;SDS011;46221;51.178;5.900;2023-02-04T08:34:29;6.90;;;3.30;;
50337;SDS011;46221;51.178;5.900;2023-02-04T08:36:56;7.97;;;3.10;;
50337;SDS011;46221;51.178;5.900;2023-02-04T08:39:22;7.50;;;3.03;;
50337;SDS011;46221;51.178;5.900;2023-02-04T08:41:49;6.47;;;2.50;;
50337;SDS011;46221;51.178;5.900;2023-02-04T08:44:16;6.35;;;2.63;;
50337;SDS011;46221;51.178;5.900;2023-02-04T08:46:42;7.72;;;2.58;;
50337;SDS011;46221;51.178;5.900;2023-02-04T08:49:09;11.45;;;4.35;;
50337;SDS011;46221;51.178;5.900;2023-02-04T08:51:35;8.95;;;3.75;;
50337;SDS011;46221;51.178;5.900;2023-02-04T08:54:02;7.75;;;3.17;;
50337;SDS011;46221;51.178;5.900;2023-02-04T08:56:28;6.97;;;3.45;;
50337;SDS011;46221;51.178;5.900;2023-02-04T08:58:56;7.15;;;3.28;;
50337;SDS011;46221;51.178;5.900;2023-02-04T09:01:22;8.02;;;3.25;;
50337;SDS011;46221;51.178;5.900;2023-02-04T09:03:49;5.50;;;2.78;;
50337;SDS011;46221;51.178;5.900;2023-02-04T09:06:15;10.05;;;3.45;;
50337;SDS011;46221;51.178;5.900;2023-02-04T09:08:42;6.45;;;3.42;;
50337;SDS011;46221;51.178;5.900;2023-02-04T09:11:08;7.55;;;3.55;;
50337;SDS011;46221;51.178;5.900;2023-02-04T09:13:37;6.93;;;2.90;;
50337;SDS011;46221;51.178;5.900;2023-02-04T09:16:04;7.82;;;3.10;;
50337;SDS011;46221;51.178;5.900;2023-02-04T09:18:31;6.97;;;2.78;;
50337;SDS011;46221;51.178;5.900;2023-02-04T09:20:58;7.55;;;3.40;;
50337;SDS011;46221;51.178;5.900;2023-02-04T09:23:24;6.95;;;3.10;;
50337;SDS011;46221;51.178;5.900;2023-02-04T09:25:51;6.38;;;3.00;;
50337;SDS011;46221;51.178;5.900;2023-02-04T09:28:17;6.75;;;2.83;;
50337;SDS011;46221;51.178;5.900;2023-02-04T09:30:44;6.50;;;3.22;;
50337;SDS011;46221;51.178;5.900;2023-02-04T09:33:12;6.22;;;3.08;;
50337;SDS011;46221;51.178;5.900;2023-02-04T09:35:41;7.88;;;3.10;;
50337;SDS011;46221;51.178;5.900;2023-02-04T09:38:07;7.55;;;3.30;;
50337;SDS011;46221;51.178;5.900;2023-02-04T09:40:40;7.40;;;3.42;;
50337;SDS011;46221;51.178;5.900;2023-02-04T09:43:11;10.73;;;4.10;;
50337;SDS011;46221;51.178;5.900;2023-02-04T09:45:42;8.90;;;3.40;;
50337;SDS011;46221;51.178;5.900;2023-02-04T09:48:09;9.63;;;3.92;;
50337;SDS011;46221;51.178;5.900;2023-02-04T09:50:38;6.95;;;3.67;;
50337;SDS011;46221;51.178;5.900;2023-02-04T09:53:05;10.27;;;4.07;;
50337;SDS011;46221;51.178;5.900;2023-02-04T09:55:34;8.35;;;4.05;;
50337;SDS011;46221;51.178;5.900;2023-02-04T09:58:17;8.23;;;3.50;;
50337;SDS011;46221;51.178;5.900;2023-02-04T10:00:45;9.43;;;3.50;;
50337;SDS011;46221;51.178;5.900;2023-02-04T10:03:16;6.70;;;3.45;;
50337;SDS011;46221;51.178;5.900;2023-02-04T10:05:45;11.57;;;4.10;;
50337;SDS011;46221;51.178;5.900;2023-02-04T10:08:14;7.93;;;3.55;;
50337;SDS011;46221;51.178;5.900;2023-02-04T10:10:43;8.68;;;3.50;;
50337;SDS011;46221;51.178;5.900;2023-02-04T10:13:20;9.48;;;4.10;;
50337;SDS011;46221;51.178;5.900;2023-02-04T10:16:02;8.63;;;3.78;;
50337;SDS011;46221;51.178;5.900;2023-02-04T10:18:37;8.30;;;4.00;;
50337;SDS011;46221;51.178;5.900;2023-02-04T10:23:40;6.50;;;3.40;;
50337;SDS011;46221;51.178;5.900;2023-02-04T10:26:10;9.07;;;4.10;;
50337;SDS011;46221;51.178;5.900;2023-02-04T10:28:38;8.60;;;4.03;;
50337;SDS011;46221;51.178;5.900;2023-02-04T10:34:11;9.00;;;4.03;;
50337;SDS011;46221;51.178;5.900;2023-02-04T10:36:44;12.30;;;4.80;;
50337;SDS011;46221;51.178;5.900;2023-02-04T10:39:20;10.40;;;3.83;;
50337;SDS011;46221;51.178;5.900;2023-02-04T10:41:49;10.55;;;3.70;;
50337;SDS011;46221;51.178;5.900;2023-02-04T10:44:19;9.68;;;3.85;;
50337;SDS011;46221;51.178;5.900;2023-02-04T10:49:40;6.88;;;3.80;;
50337;SDS011;46221;51.178;5.900;2023-02-04T10:52:16;12.73;;;4.97;;
50337;SDS011;46221;51.178;5.900;2023-02-04T10:54:46;9.30;;;3.85;;
50337;SDS011;46221;51.178;5.900;2023-02-04T10:57:20;10.52;;;3.92;;
50337;SDS011;46221;51.178;5.900;2023-02-04T10:59:50;11.00;;;4.38;;
50337;SDS011;46221;51.178;5.900;2023-02-04T11:04:57;9.75;;;4.78;;
50337;SDS011;46221;51.178;5.900;2023-02-04T11:07:24;11.52;;;4.35;;
50337;SDS011;46221;51.178;5.900;2023-02-04T11:09:50;12.27;;;4.53;;
50337;SDS011;46221;51.178;5.900;2023-02-04T11:12:21;7.72;;;4.07;;
50337;SDS011;46221;51.178;5.900;2023-02-04T11:14:55;9.10;;;4.22;;
50337;SDS011;46221;51.178;5.900;2023-02-04T11:17:29;10.82;;;5.25;;
50337;SDS011;46221;51.178;5.900;2023-02-04T11:19:58;11.13;;;4.70;;
50337;SDS011;46221;51.178;5.900;2023-02-04T11:22:40;13.20;;;5.07;;
50337;SDS011;46221;51.178;5.900;2023-02-04T11:28:15;10.95;;;4.78;;
50337;SDS011;46221;51.178;5.900;2023-02-04T11:30:59;8.00;;;4.05;;
50337;SDS011;46221;51.178;5.900;2023-02-04T11:33:38;10.25;;;4.63;;
50337;SDS011;46221;51.178;5.900;2023-02-04T11:36:08;12.23;;;4.35;;
50337;SDS011;46221;51.178;5.900;2023-02-04T11:38:37;7.78;;;4.07;;
50337;SDS011;46221;51.178;5.900;2023-02-04T11:41:04;9.30;;;3.92;;
50337;SDS011;46221;51.178;5.900;2023-02-04T11:43:34;11.95;;;4.75;;
50337;SDS011;46221;51.178;5.900;2023-02-04T11:46:06;9.77;;;3.88;;
50337;SDS011;46221;51.178;5.900;2023-02-04T11:48:39;12.10;;;4.50;;
50337;SDS011;46221;51.178;5.900;2023-02-04T11:51:10;8.70;;;4.00;;
50337;SDS011;46221;51.178;5.900;2023-02-04T11:53:43;10.15;;;4.85;;
50337;SDS011;46221;51.178;5.900;2023-02-04T11:56:17;11.07;;;4.30;;
50337;SDS011;46221;51.178;5.900;2023-02-04T11:58:45;12.35;;;4.30;;
50337;SDS011;46221;51.178;5.900;2023-02-04T12:01:17;9.98;;;4.32;;
50337;SDS011;46221;51.178;5.900;2023-02-04T12:03:45;9.85;;;4.07;;
50337;SDS011;46221;51.178;5.900;2023-02-04T12:06:19;9.07;;;3.53;;
50337;SDS011;46221;51.178;5.900;2023-02-04T12:08:47;9.60;;;3.50;;
50337;SDS011;46221;51.178;5.900;2023-02-04T12:11:23;8.98;;;4.30;;
50337;SDS011;46221;51.178;5.900;2023-02-04T12:13:53;7.70;;;3.30;;
50337;SDS011;46221;51.178;5.900;2023-02-04T12:16:21;8.32;;;3.60;;
50337;SDS011;46221;51.178;5.900;2023-02-04T12:18:49;11.85;;;4.40;;
50337;SDS011;46221;51.178;5.900;2023-02-04T12:21:16;7.63;;;3.40;;
50337;SDS011;46221;51.178;5.900;2023-02-04T12:23:46;9.00;;;3.78;;
50337;SDS011;46221;51.178;5.900;2023-02-04T12:26:12;6.60;;;3.45;;
50337;SDS011;46221;51.178;5.900;2023-02-04T12:28:39;10.07;;;3.63;;
50337;SDS011;46221;51.178;5.900;2023-02-04T12:31:05;6.50;;;2.65;;
50337;SDS011;46221;51.178;5.900;2023-02-04T12:33:32;12.30;;;3.58;;
50337;SDS011;46221;51.178;5.900;2023-02-04T12:35:58;7.03;;;3.10;;
50337;SDS011;46221;51.178;5.900;2023-02-04T12:38:25;7.43;;;3.40;;
50337;SDS011;46221;51.178;5.900;2023-02-04T12:40:53;8.98;;;3.45;;
50337;SDS011;46221;51.178;5.900;2023-02-04T12:43:19;10.80;;;3.10;;
50337;SDS011;46221;51.178;5.900;2023-02-04T12:45:45;9.30;;;3.63;;
50337;SDS011;46221;51.178;5.900;2023-02-04T12:48:15;8.95;;;3.72;;
50337;SDS011;46221;51.178;5.900;2023-02-04T12:50:42;7.30;;;3.30;;
50337;SDS011;46221;51.178;5.900;2023-02-04T12:53:08;14.13;;;4.55;;
50337;SDS011;46221;51.178;5.900;2023-02-04T12:55:35;6.47;;;2.95;;
50337;SDS011;46221;51.178;5.900;2023-02-04T12:58:01;9.13;;;3.40;;
50337;SDS011;46221;51.178;5.900;2023-02-04T13:00:28;8.93;;;3.55;;
50337;SDS011;46221;51.178;5.900;2023-02-04T13:02:54;7.85;;;2.95;;
50337;SDS011;46221;51.178;5.900;2023-02-04T13:05:24;7.88;;;2.95;;
50337;SDS011;46221;51.178;5.900;2023-02-04T13:07:50;8.23;;;2.90;;
50337;SDS011;46221;51.178;5.900;2023-02-04T13:10:17;7.68;;;3.10;;
50337;SDS011;46221;51.178;5.900;2023-02-04T13:12:45;7.93;;;3.85;;
50337;SDS011;46221;51.178;5.900;2023-02-04T13:15:11;7.50;;;3.10;;
50337;SDS011;46221;51.178;5.900;2023-02-04T13:17:38;7.95;;;2.95;;
50337;SDS011;46221;51.178;5.900;2023-02-04T13:20:04;9.35;;;2.92;;
50337;SDS011;46221;51.178;5.900;2023-02-04T13:22:32;10.75;;;3.25;;
50337;SDS011;46221;51.178;5.900;2023-02-04T13:24:58;6.82;;;2.67;;
50337;SDS011;46221;51.178;5.900;2023-02-04T13:27:25;7.97;;;3.53;;
50337;SDS011;46221;51.178;5.900;2023-02-04T13:29:52;6.65;;;3.30;;
50337;SDS011;46221;51.178;5.900;2023-02-04T13:32:19;6.88;;;2.75;;
50337;SDS011;46221;51.178;5.900;2023-02-04T13:34:45;6.68;;;2.72;;
50337;SDS011;46221;51.178;5.900;2023-02-04T13:37:12;7.70;;;3.08;;
50337;SDS011;46221;51.178;5.900;2023-02-04T13:39:38;8.65;;;3.05;;
50337;SDS011;46221;51.178;5.900;2023-02-04T13:42:04;7.85;;;3.10;;
50337;SDS011;46221;51.178;5.900;2023-02-04T13:44:31;8.00;;;2.75;;
50337;SDS011;46221;51.178;5.900;2023-02-04T13:46:58;7.30;;;2.72;;
50337;SDS011;46221;51.178;5.900;2023-02-04T13:49:25;7.07;;;2.50;;
50337;SDS011;46221;51.178;5.900;2023-02-04T13:51:51;6.20;;;2.70;;
50337;SDS011;46221;51.178;5.900;2023-02-04T13:54:18;6.55;;;2.38;;
50337;SDS011;46221;51.178;5.900;2023-02-04T13:56:45;10.90;;;2.90;;
50337;SDS011;46221;51.178;5.900;2023-02-04T13:59:11;7.50;;;2.80;;
50337;SDS011;46221;51.178;5.900;2023-02-04T14:01:37;7.28;;;2.58;;
50337;SDS011;46221;51.178;5.900;2023-02-04T14:04:04;6.95;;;2.45;;
50337;SDS011;46221;51.178;5.900;2023-02-04T14:06:30;8.68;;;2.67;;
50337;SDS011;46221;51.178;5.900;2023-02-04T14:09:03;7.60;;;2.88;;
50337;SDS011;46221;51.178;5.900;2023-02-04T14:11:29;10.55;;;2.83;;
50337;SDS011;46221;51.178;5.900;2023-02-04T14:13:56;5.90;;;2.47;;
50337;SDS011;46221;51.178;5.900;2023-02-04T14:16:25;6.53;;;2.65;;
50337;SDS011;46221;51.178;5.900;2023-02-04T14:18:52;9.05;;;2.60;;
50337;SDS011;46221;51.178;5.900;2023-02-04T14:21:18;10.55;;;3.20;;
50337;SDS011;46221;51.178;5.900;2023-02-04T14:23:45;9.60;;;2.80;;
50337;SDS011;46221;51.178;5.900;2023-02-04T14:26:11;8.07;;;3.00;;
50337;SDS011;46221;51.178;5.900;2023-02-04T14:28:38;10.02;;;2.80;;
50337;SDS011;46221;51.178;5.900;2023-02-04T14:31:04;8.57;;;2.20;;
50337;SDS011;46221;51.178;5.900;2023-02-04T14:33:31;9.02;;;2.80;;
50337;SDS011;46221;51.178;5.900;2023-02-04T14:35:57;7.90;;;2.45;;
50337;SDS011;46221;51.178;5.900;2023-02-04T14:38:24;8.02;;;2.80;;
50337;SDS011;46221;51.178;5.900;2023-02-04T14:40:59;8.32;;;2.38;;
50337;SDS011;46221;51.178;5.900;2023-02-04T14:43:26;8.50;;;3.13;;
50337;SDS011;46221;51.178;5.900;2023-02-04T14:45:52;9.35;;;2.80;;
50337;SDS011;46221;51.178;5.900;2023-02-04T14:48:19;6.40;;;2.40;;
50337;SDS011;46221;51.178;5.900;2023-02-04T14:50:45;8.63;;;2.78;;
50337;SDS011;46221;51.178;5.900;2023-02-04T14:53:12;7.60;;;2.42;;
50337;SDS011;46221;51.178;5.900;2023-02-04T14:55:38;9.73;;;2.80;;
50337;SDS011;46221;51.178;5.900;2023-02-04T14:58:04;8.25;;;2.22;;
50337;SDS011;46221;51.178;5.900;2023-02-04T15:00:31;7.38;;;2.72;;
50337;SDS011;46221;51.178;5.900;2023-02-04T15:02:58;8.35;;;3.13;;